Woomera, Australia
Current Conditions -  °F | °C
As of 1:30 AM on Saturday 01 Nov 2014 (Local Time) from YPWR Reporting Station
Clear Clear  
Wind Chill: 64°   Ceiling: Unl
Heat Index: 64°   Visibility: 6mi
Dew Point: 57°   Wind: 17mph
Humidity: 77%   Direction: 230°SW
Pressure: 29.8"   Gusts: NA
Location:  31.2°S, 136.82°E
Report Text: YPWR 311530Z AUTO 23015KT 9999 // NCD 18/14 Q1009
Loading
Personal Weather Stations






























Interactive Weather Map
Tropical Storm Tracking
New forecast layout! Learn more

10-Day Weather Forecast

Advertisements
Track Severe Weather on mobile